sensor_id;sensor_type;location;lat;lon;timestamp;temperature;humidity
51559;DHT22;61650;48.882;2.092;2023-07-29T00:00:52;18.40;99.90
51559;DHT22;61650;48.882;2.092;2023-07-29T00:03:18;18.40;99.90
51559;DHT22;61650;48.882;2.092;2023-07-29T00:05:47;18.40;99.90
51559;DHT22;61650;48.882;2.092;2023-07-29T00:08:13;18.40;99.90
51559;DHT22;61650;48.882;2.092;2023-07-29T00:10:38;18.30;99.90
51559;DHT22;61650;48.882;2.092;2023-07-29T00:13:05;18.40;99.90
51559;DHT22;61650;48.882;2.092;2023-07-29T00:15:31;18.40;99.90
51559;DHT22;61650;48.882;2.092;2023-07-29T00:17:56;18.30;99.90
51559;DHT22;61650;48.882;2.092;2023-07-29T00:20:22;18.30;99.90
51559;DHT22;61650;48.882;2.092;2023-07-29T00:22:48;18.20;99.90
51559;DHT22;61650;48.882;2.092;2023-07-29T00:25:16;18.20;99.90
51559;DHT22;61650;48.882;2.092;2023-07-29T00:27:42;18.10;99.90
51559;DHT22;61650;48.882;2.092;2023-07-29T00:30:08;18.10;99.90
51559;DHT22;61650;48.882;2.092;2023-07-29T00:32:34;18.10;99.90
51559;DHT22;61650;48.882;2.092;2023-07-29T00:35:00;18.00;99.90
51559;DHT22;61650;48.882;2.092;2023-07-29T00:37:27;18.00;99.90
51559;DHT22;61650;48.882;2.092;2023-07-29T00:39:53;18.10;99.90
51559;DHT22;61650;48.882;2.092;2023-07-29T00:42:19;18.10;99.90
51559;DHT22;61650;48.882;2.092;2023-07-29T00:44:44;18.10;99.90
51559;DHT22;61650;48.882;2.092;2023-07-29T00:47:11;18.10;99.90
51559;DHT22;61650;48.882;2.092;2023-07-29T00:49:38;18.10;99.90
51559;DHT22;61650;48.882;2.092;2023-07-29T00:52:04;18.20;99.90
51559;DHT22;61650;48.882;2.092;2023-07-29T00:54:29;18.20;99.90
51559;DHT22;61650;48.882;2.092;2023-07-29T00:56:55;18.20;99.90
51559;DHT22;61650;48.882;2.092;2023-07-29T00:59:21;18.20;99.90
51559;DHT22;61650;48.882;2.092;2023-07-29T01:01:48;18.10;99.90
51559;DHT22;61650;48.882;2.092;2023-07-29T01:04:14;18.10;99.90
51559;DHT22;61650;48.882;2.092;2023-07-29T01:07:14;18.10;99.90
51559;DHT22;61650;48.882;2.092;2023-07-29T01:12:09;18.10;99.90
51559;DHT22;61650;48.882;2.092;2023-07-29T01:17:12;18.20;99.90
51559;DHT22;61650;48.882;2.092;2023-07-29T01:19:52;18.10;99.60
51559;DHT22;61650;48.882;2.092;2023-07-29T01:22:21;18.20;99.90
51559;DHT22;61650;48.882;2.092;2023-07-29T01:24:48;18.20;99.90
51559;DHT22;61650;48.882;2.092;2023-07-29T01:27:13;18.10;97.30
51559;DHT22;61650;48.882;2.092;2023-07-29T01:29:39;18.10;97.50
51559;DHT22;61650;48.882;2.092;2023-07-29T01:32:17;18.10;98.50
51559;DHT22;61650;48.882;2.092;2023-07-29T01:34:57;18.10;99.10
51559;DHT22;61650;48.882;2.092;2023-07-29T01:37:26;18.10;99.20
51559;DHT22;61650;48.882;2.092;2023-07-29T01:39:56;18.00;98.30
51559;DHT22;61650;48.882;2.092;2023-07-29T01:42:23;18.00;97.60
51559;DHT22;61650;48.882;2.092;2023-07-29T01:44:49;18.00;97.30
51559;DHT22;61650;48.882;2.092;2023-07-29T01:47:14;18.00;97.70
51559;DHT22;61650;48.882;2.092;2023-07-29T01:49:40;17.90;96.00
51559;DHT22;61650;48.882;2.092;2023-07-29T01:52:06;17.90;96.60
51559;DHT22;61650;48.882;2.092;2023-07-29T01:54:31;17.90;96.10
51559;DHT22;61650;48.882;2.092;2023-07-29T01:56:57;17.90;96.10
51559;DHT22;61650;48.882;2.092;2023-07-29T01:59:22;17.90;96.40
51559;DHT22;61650;48.882;2.092;2023-07-29T02:01:48;17.90;96.00
51559;DHT22;61650;48.882;2.092;2023-07-29T02:04:14;17.90;95.20
51559;DHT22;61650;48.882;2.092;2023-07-29T02:06:39;17.90;96.50
51559;DHT22;61650;48.882;2.092;2023-07-29T02:09:05;17.90;95.10
51559;DHT22;61650;48.882;2.092;2023-07-29T02:11:31;17.90;95.30
51559;DHT22;61650;48.882;2.092;2023-07-29T02:13:57;17.80;95.40
51559;DHT22;61650;48.882;2.092;2023-07-29T02:16:26;17.80;95.30
51559;DHT22;61650;48.882;2.092;2023-07-29T02:18:51;17.80;94.30
51559;DHT22;61650;48.882;2.092;2023-07-29T02:21:17;17.80;95.50
51559;DHT22;61650;48.882;2.092;2023-07-29T02:23:43;17.70;94.90
51559;DHT22;61650;48.882;2.092;2023-07-29T02:26:08;17.70;94.60
51559;DHT22;61650;48.882;2.092;2023-07-29T02:28:34;17.60;95.10
51559;DHT22;61650;48.882;2.092;2023-07-29T02:31:13;17.60;95.00
51559;DHT22;61650;48.882;2.092;2023-07-29T02:33:39;17.60;95.40
51559;DHT22;61650;48.882;2.092;2023-07-29T02:36:05;17.60;95.40
51559;DHT22;61650;48.882;2.092;2023-07-29T02:38:30;17.50;95.70
51559;DHT22;61650;48.882;2.092;2023-07-29T02:40:56;17.50;96.20
51559;DHT22;61650;48.882;2.092;2023-07-29T02:43:22;17.50;96.00
51559;DHT22;61650;48.882;2.092;2023-07-29T02:45:47;17.40;96.30
51559;DHT22;61650;48.882;2.092;2023-07-29T02:48:13;17.40;96.40
51559;DHT22;61650;48.882;2.092;2023-07-29T02:50:39;17.30;96.40
51559;DHT22;61650;48.882;2.092;2023-07-29T02:53:04;17.30;97.00
51559;DHT22;61650;48.882;2.092;2023-07-29T02:55:30;17.30;96.70
51559;DHT22;61650;48.882;2.092;2023-07-29T02:57:56;17.30;97.00
51559;DHT22;61650;48.882;2.092;2023-07-29T03:00:21;17.20;97.10
51559;DHT22;61650;48.882;2.092;2023-07-29T03:02:47;17.20;97.30
51559;DHT22;61650;48.882;2.092;2023-07-29T03:05:13;17.10;97.30
51559;DHT22;61650;48.882;2.092;2023-07-29T03:07:38;17.10;97.60
51559;DHT22;61650;48.882;2.092;2023-07-29T03:10:04;17.00;97.70
51559;DHT22;61650;48.882;2.092;2023-07-29T03:12:31;17.00;98.10
51559;DHT22;61650;48.882;2.092;2023-07-29T03:14:56;17.00;98.50
51559;DHT22;61650;48.882;2.092;2023-07-29T03:17:22;17.00;98.30
51559;DHT22;61650;48.882;2.092;2023-07-29T03:19:47;17.00;98.20
51559;DHT22;61650;48.882;2.092;2023-07-29T03:22:13;17.00;98.30
51559;DHT22;61650;48.882;2.092;2023-07-29T03:24:38;16.90;98.40
51559;DHT22;61650;48.882;2.092;2023-07-29T03:27:04;17.00;98.40
51559;DHT22;61650;48.882;2.092;2023-07-29T03:29:30;16.90;98.40
51559;DHT22;61650;48.882;2.092;2023-07-29T03:31:56;16.90;98.50
51559;DHT22;61650;48.882;2.092;2023-07-29T03:34:21;16.90;98.80
51559;DHT22;61650;48.882;2.092;2023-07-29T03:36:47;16.90;98.60
51559;DHT22;61650;48.882;2.092;2023-07-29T03:39:14;16.80;98.70
51559;DHT22;61650;48.882;2.092;2023-07-29T03:41:39;16.80;98.90
51559;DHT22;61650;48.882;2.092;2023-07-29T03:44:05;16.90;98.90
51559;DHT22;61650;48.882;2.092;2023-07-29T03:46:31;16.90;99.30
51559;DHT22;61650;48.882;2.092;2023-07-29T03:48:57;16.90;99.00
51559;DHT22;61650;48.882;2.092;2023-07-29T03:51:22;16.90;99.20
51559;DHT22;61650;48.882;2.092;2023-07-29T03:53:50;16.90;99.00
51559;DHT22;61650;48.882;2.092;2023-07-29T03:56:15;16.80;98.80
51559;DHT22;61650;48.882;2.092;2023-07-29T03:58:41;16.80;99.20
51559;DHT22;61650;48.882;2.092;2023-07-29T04:01:07;16.80;99.40
51559;DHT22;61650;48.882;2.092;2023-07-29T04:03:33;16.80;99.30
51559;DHT22;61650;48.882;2.092;2023-07-29T04:05:59;16.80;99.20
51559;DHT22;61650;48.882;2.092;2023-07-29T04:08:25;16.70;99.00
51559;DHT22;61650;48.882;2.092;2023-07-29T04:10:51;16.70;99.30
51559;DHT22;61650;48.882;2.092;2023-07-29T04:13:16;16.70;99.50
51559;DHT22;61650;48.882;2.092;2023-07-29T04:15:42;16.70;99.40
51559;DHT22;61650;48.882;2.092;2023-07-29T04:18:08;16.70;99.50
51559;DHT22;61650;48.882;2.092;2023-07-29T04:20:33;16.60;99.50
51559;DHT22;61650;48.882;2.092;2023-07-29T04:22:59;16.60;99.50
51559;DHT22;61650;48.882;2.092;2023-07-29T04:25:24;16.60;99.70
51559;DHT22;61650;48.882;2.092;2023-07-29T04:27:50;16.50;99.90
51559;DHT22;61650;48.882;2.092;2023-07-29T04:30:16;16.50;99.90
51559;DHT22;61650;48.882;2.092;2023-07-29T04:32:41;16.50;99.90
51559;DHT22;61650;48.882;2.092;2023-07-29T04:35:08;16.50;99.90
51559;DHT22;61650;48.882;2.092;2023-07-29T04:37:34;16.50;99.90
51559;DHT22;61650;48.882;2.092;2023-07-29T04:39:59;16.50;99.90
51559;DHT22;61650;48.882;2.092;2023-07-29T04:42:25;16.50;99.90
51559;DHT22;61650;48.882;2.092;2023-07-29T04:44:50;16.50;99.90
51559;DHT22;61650;48.882;2.092;2023-07-29T04:47:16;16.40;99.90
51559;DHT22;61650;48.882;2.092;2023-07-29T04:49:42;16.40;99.90
51559;DHT22;61650;48.882;2.092;2023-07-29T04:52:07;16.40;99.90
51559;DHT22;61650;48.882;2.092;2023-07-29T04:54:33;16.40;99.90
51559;DHT22;61650;48.882;2.092;2023-07-29T04:56:59;16.40;99.90
51559;DHT22;61650;48.882;2.092;2023-07-29T04:59:25;16.30;99.90
51559;DHT22;61650;48.882;2.092;2023-07-29T05:01:50;16.30;99.90
51559;DHT22;61650;48.882;2.092;2023-07-29T05:04:16;16.30;99.90
51559;DHT22;61650;48.882;2.092;2023-07-29T05:06:41;16.40;99.90
51559;DHT22;61650;48.882;2.092;2023-07-29T05:09:18;16.40;99.90
51559;DHT22;61650;48.882;2.092;2023-07-29T05:11:44;16.40;99.90
51559;DHT22;61650;48.882;2.092;2023-07-29T05:14:15;16.50;99.90
51559;DHT22;61650;48.882;2.092;2023-07-29T05:16:41;16.50;99.50
51559;DHT22;61650;48.882;2.092;2023-07-29T05:19:07;16.60;99.20
51559;DHT22;61650;48.882;2.092;2023-07-29T05:21:33;16.60;99.00
51559;DHT22;61650;48.882;2.092;2023-07-29T05:23:59;16.70;98.80
51559;DHT22;61650;48.882;2.092;2023-07-29T05:26:27;16.70;98.70
51559;DHT22;61650;48.882;2.092;2023-07-29T05:28:53;16.70;98.40
51559;DHT22;61650;48.882;2.092;2023-07-29T05:31:19;16.80;98.10
51559;DHT22;61650;48.882;2.092;2023-07-29T05:33:44;16.80;97.80
51559;DHT22;61650;48.882;2.092;2023-07-29T05:36:10;16.80;97.70
51559;DHT22;61650;48.882;2.092;2023-07-29T05:38:35;16.80;97.90
51559;DHT22;61650;48.882;2.092;2023-07-29T05:41:01;16.90;97.50
51559;DHT22;61650;48.882;2.092;2023-07-29T05:43:27;16.90;97.10
51559;DHT22;61650;48.882;2.092;2023-07-29T05:45:53;17.00;97.30
51559;DHT22;61650;48.882;2.092;2023-07-29T05:48:19;17.10;96.50
51559;DHT22;61650;48.882;2.092;2023-07-29T05:50:45;17.10;96.20
51559;DHT22;61650;48.882;2.092;2023-07-29T05:53:11;17.20;95.70
51559;DHT22;61650;48.882;2.092;2023-07-29T05:55:37;17.20;95.80
51559;DHT22;61650;48.882;2.092;2023-07-29T05:58:02;17.30;95.30
51559;DHT22;61650;48.882;2.092;2023-07-29T06:00:28;17.40;94.60
51559;DHT22;61650;48.882;2.092;2023-07-29T06:02:53;17.40;94.70
51559;DHT22;61650;48.882;2.092;2023-07-29T06:05:19;17.50;93.60
51559;DHT22;61650;48.882;2.092;2023-07-29T06:07:45;17.60;93.90
51559;DHT22;61650;48.882;2.092;2023-07-29T06:10:13;17.70;93.20
51559;DHT22;61650;48.882;2.092;2023-07-29T06:12:39;17.70;92.40
51559;DHT22;61650;48.882;2.092;2023-07-29T06:15:05;17.70;91.50
51559;DHT22;61650;48.882;2.092;2023-07-29T06:17:30;17.80;91.10
51559;DHT22;61650;48.882;2.092;2023-07-29T06:19:56;17.90;92.10
51559;DHT22;61650;48.882;2.092;2023-07-29T06:22:22;17.90;91.60
51559;DHT22;61650;48.882;2.092;2023-07-29T06:24:47;17.90;90.60
51559;DHT22;61650;48.882;2.092;2023-07-29T06:27:13;17.90;89.40
51559;DHT22;61650;48.882;2.092;2023-07-29T06:29:38;17.90;91.10
51559;DHT22;61650;48.882;2.092;2023-07-29T06:32:04;18.00;90.60
51559;DHT22;61650;48.882;2.092;2023-07-29T06:34:30;18.00;89.00
51559;DHT22;61650;48.882;2.092;2023-07-29T06:36:55;18.00;88.80
51559;DHT22;61650;48.882;2.092;2023-07-29T06:39:21;18.00;89.70
51559;DHT22;61650;48.882;2.092;2023-07-29T06:41:47;18.10;89.30
51559;DHT22;61650;48.882;2.092;2023-07-29T06:44:12;18.10;89.40
51559;DHT22;61650;48.882;2.092;2023-07-29T06:46:38;18.20;89.70
51559;DHT22;61650;48.882;2.092;2023-07-29T06:49:05;18.20;87.20
51559;DHT22;61650;48.882;2.092;2023-07-29T06:51:31;18.20;87.90
51559;DHT22;61650;48.882;2.092;2023-07-29T06:53:59;18.20;87.60
51559;DHT22;61650;48.882;2.092;2023-07-29T06:56:25;18.20;87.40
51559;DHT22;61650;48.882;2.092;2023-07-29T06:58:51;18.30;88.00
51559;DHT22;61650;48.882;2.092;2023-07-29T07:01:16;18.30;88.10
51559;DHT22;61650;48.882;2.092;2023-07-29T07:03:42;18.40;87.40
51559;DHT22;61650;48.882;2.092;2023-07-29T07:06:08;18.60;87.50
51559;DHT22;61650;48.882;2.092;2023-07-29T07:08:33;18.60;87.10
51559;DHT22;61650;48.882;2.092;2023-07-29T07:10:59;18.70;85.80
51559;DHT22;61650;48.882;2.092;2023-07-29T07:13:24;18.70;86.00
51559;DHT22;61650;48.882;2.092;2023-07-29T07:15:50;18.70;86.00
51559;DHT22;61650;48.882;2.092;2023-07-29T07:18:16;18.80;86.60
51559;DHT22;61650;48.882;2.092;2023-07-29T07:20:41;18.80;86.00
51559;DHT22;61650;48.882;2.092;2023-07-29T07:23:07;18.80;85.50
51559;DHT22;61650;48.882;2.092;2023-07-29T07:25:36;18.80;86.00
51559;DHT22;61650;48.882;2.092;2023-07-29T07:28:02;18.90;86.90
51559;DHT22;61650;48.882;2.092;2023-07-29T07:30:27;18.90;85.30
51559;DHT22;61650;48.882;2.092;2023-07-29T07:32:53;18.90;85.30
51559;DHT22;61650;48.882;2.092;2023-07-29T07:35:19;19.00;85.20
51559;DHT22;61650;48.882;2.092;2023-07-29T07:37:45;19.00;85.50
51559;DHT22;61650;48.882;2.092;2023-07-29T07:40:10;19.00;85.40
51559;DHT22;61650;48.882;2.092;2023-07-29T07:42:36;19.10;85.50
51559;DHT22;61650;48.882;2.092;2023-07-29T07:45:02;19.10;84.10
51559;DHT22;61650;48.882;2.092;2023-07-29T07:47:28;19.20;84.70
51559;DHT22;61650;48.882;2.092;2023-07-29T07:49:53;19.20;84.80
51559;DHT22;61650;48.882;2.092;2023-07-29T07:52:19;19.40;84.80
51559;DHT22;61650;48.882;2.092;2023-07-29T07:54:44;19.40;83.40
51559;DHT22;61650;48.882;2.092;2023-07-29T07:57:10;19.50;84.50
51559;DHT22;61650;48.882;2.092;2023-07-29T07:59:35;19.50;84.20
51559;DHT22;61650;48.882;2.092;2023-07-29T08:02:01;19.50;82.80
51559;DHT22;61650;48.882;2.092;2023-07-29T08:04:27;19.50;83.00
51559;DHT22;61650;48.882;2.092;2023-07-29T08:06:52;19.50;83.30
51559;DHT22;61650;48.882;2.092;2023-07-29T08:09:18;19.50;83.00
51559;DHT22;61650;48.882;2.092;2023-07-29T08:11:43;19.50;82.90
51559;DHT22;61650;48.882;2.092;2023-07-29T08:14:09;19.60;83.30
51559;DHT22;61650;48.882;2.092;2023-07-29T08:16:35;19.60;84.90
51559;DHT22;61650;48.882;2.092;2023-07-29T08:19:00;19.70;84.80
51559;DHT22;61650;48.882;2.092;2023-07-29T08:21:27;19.70;84.60
51559;DHT22;61650;48.882;2.092;2023-07-29T08:23:53;19.80;84.30
51559;DHT22;61650;48.882;2.092;2023-07-29T08:26:18;19.80;83.70
51559;DHT22;61650;48.882;2.092;2023-07-29T08:28:44;19.90;82.50
51559;DHT22;61650;48.882;2.092;2023-07-29T08:31:10;19.90;82.50
51559;DHT22;61650;48.882;2.092;2023-07-29T08:33:35;20.00;82.50
51559;DHT22;61650;48.882;2.092;2023-07-29T08:36:02;20.10;82.70
51559;DHT22;61650;48.882;2.092;2023-07-29T08:38:28;20.20;82.30
51559;DHT22;61650;48.882;2.092;2023-07-29T08:43:32;20.30;81.00
51559;DHT22;61650;48.882;2.092;2023-07-29T08:45:59;20.40;82.20
51559;DHT22;61650;48.882;2.092;2023-07-29T08:48:41;20.40;83.00
51559;DHT22;61650;48.882;2.092;2023-07-29T08:51:09;20.50;82.20
51559;DHT22;61650;48.882;2.092;2023-07-29T08:53:36;20.50;81.20
51559;DHT22;61650;48.882;2.092;2023-07-29T08:56:02;20.50;79.60
51559;DHT22;61650;48.882;2.092;2023-07-29T08:58:27;20.50;80.40
51559;DHT22;61650;48.882;2.092;2023-07-29T09:00:54;20.60;79.50
51559;DHT22;61650;48.882;2.092;2023-07-29T09:03:20;20.70;80.90
51559;DHT22;61650;48.882;2.092;2023-07-29T09:05:47;20.80;80.40
51559;DHT22;61650;48.882;2.092;2023-07-29T09:08:13;20.90;77.50
51559;DHT22;61650;48.882;2.092;2023-07-29T09:10:39;20.80;77.30
51559;DHT22;61650;48.882;2.092;2023-07-29T09:13:05;20.70;77.20
51559;DHT22;61650;48.882;2.092;2023-07-29T09:15:32;20.80;78.70
51559;DHT22;61650;48.882;2.092;2023-07-29T09:17:59;20.80;76.90
51559;DHT22;61650;48.882;2.092;2023-07-29T09:20:33;20.90;78.90
51559;DHT22;61650;48.882;2.092;2023-07-29T09:22:59;21.00;78.40
51559;DHT22;61650;48.882;2.092;2023-07-29T09:25:29;21.10;78.60
51559;DHT22;61650;48.882;2.092;2023-07-29T09:28:01;21.20;76.30
51559;DHT22;61650;48.882;2.092;2023-07-29T09:30:32;21.30;76.20
51559;DHT22;61650;48.882;2.092;2023-07-29T09:32:58;21.30;75.70
51559;DHT22;61650;48.882;2.092;2023-07-29T09:35:27;21.20;76.60
51559;DHT22;61650;48.882;2.092;2023-07-29T09:37:53;21.10;75.40
51559;DHT22;61650;48.882;2.092;2023-07-29T09:40:19;21.10;76.60
51559;DHT22;61650;48.882;2.092;2023-07-29T09:42:49;21.00;75.30
51559;DHT22;61650;48.882;2.092;2023-07-29T09:45:26;20.90;77.30
51559;DHT22;61650;48.882;2.092;2023-07-29T09:47:54;20.90;76.90
51559;DHT22;61650;48.882;2.092;2023-07-29T09:50:24;21.00;77.30
51559;DHT22;61650;48.882;2.092;2023-07-29T09:52:51;21.10;79.40
51559;DHT22;61650;48.882;2.092;2023-07-29T09:55:18;21.20;78.20
51559;DHT22;61650;48.882;2.092;2023-07-29T09:57:45;21.20;77.10
51559;DHT22;61650;48.882;2.092;2023-07-29T10:00:12;21.20;77.00
51559;DHT22;61650;48.882;2.092;2023-07-29T10:02:43;21.20;78.40
51559;DHT22;61650;48.882;2.092;2023-07-29T10:05:09;21.20;76.00
51559;DHT22;61650;48.882;2.092;2023-07-29T10:07:39;21.20;77.10
51559;DHT22;61650;48.882;2.092;2023-07-29T10:10:06;21.20;79.20
51559;DHT22;61650;48.882;2.092;2023-07-29T10:12:32;21.20;77.00
51559;DHT22;61650;48.882;2.092;2023-07-29T10:15:04;21.20;77.30
51559;DHT22;61650;48.882;2.092;2023-07-29T10:17:31;21.20;75.70
51559;DHT22;61650;48.882;2.092;2023-07-29T10:19:58;21.30;75.30
51559;DHT22;61650;48.882;2.092;2023-07-29T10:22:27;21.30;76.30
51559;DHT22;61650;48.882;2.092;2023-07-29T10:25:02;21.30;76.80
51559;DHT22;61650;48.882;2.092;2023-07-29T10:27:31;21.20;76.90
51559;DHT22;61650;48.882;2.092;2023-07-29T10:29:59;21.10;80.80
51559;DHT22;61650;48.882;2.092;2023-07-29T10:32:26;20.80;83.10
51559;DHT22;61650;48.882;2.092;2023-07-29T10:34:54;20.50;84.90
51559;DHT22;61650;48.882;2.092;2023-07-29T10:37:20;20.30;86.50
51559;DHT22;61650;48.882;2.092;2023-07-29T10:39:54;20.30;86.30
51559;DHT22;61650;48.882;2.092;2023-07-29T10:42:20;20.30;86.40
51559;DHT22;61650;48.882;2.092;2023-07-29T10:44:51;20.40;86.60
51559;DHT22;61650;48.882;2.092;2023-07-29T10:47:25;20.60;86.20
51559;DHT22;61650;48.882;2.092;2023-07-29T10:49:54;20.80;83.60
51559;DHT22;61650;48.882;2.092;2023-07-29T10:55:03;21.10;82.70
51559;DHT22;61650;48.882;2.092;2023-07-29T10:57:38;21.20;83.60
51559;DHT22;61650;48.882;2.092;2023-07-29T11:00:06;21.30;81.70
51559;DHT22;61650;48.882;2.092;2023-07-29T11:02:35;21.30;81.40
51559;DHT22;61650;48.882;2.092;2023-07-29T11:05:06;21.30;78.60
51559;DHT22;61650;48.882;2.092;2023-07-29T11:07:46;21.50;78.90
51559;DHT22;61650;48.882;2.092;2023-07-29T11:10:13;21.60;79.10
51559;DHT22;61650;48.882;2.092;2023-07-29T11:12:48;21.80;76.10
51559;DHT22;61650;48.882;2.092;2023-07-29T11:15:27;22.00;76.80
51559;DHT22;61650;48.882;2.092;2023-07-29T11:18:00;22.20;77.60
51559;DHT22;61650;48.882;2.092;2023-07-29T11:20:27;22.20;79.40
51559;DHT22;61650;48.882;2.092;2023-07-29T11:22:55;22.20;77.20
51559;DHT22;61650;48.882;2.092;2023-07-29T11:25:22;22.20;77.70
51559;DHT22;61650;48.882;2.092;2023-07-29T11:27:48;22.20;77.50
51559;DHT22;61650;48.882;2.092;2023-07-29T11:30:14;22.40;79.00
51559;DHT22;61650;48.882;2.092;2023-07-29T11:32:42;22.60;78.70
51559;DHT22;61650;48.882;2.092;2023-07-29T11:35:09;22.80;76.60
51559;DHT22;61650;48.882;2.092;2023-07-29T11:37:36;22.90;77.30
51559;DHT22;61650;48.882;2.092;2023-07-29T11:40:03;22.90;79.60
51559;DHT22;61650;48.882;2.092;2023-07-29T11:42:32;23.00;74.70
51559;DHT22;61650;48.882;2.092;2023-07-29T11:44:59;23.20;74.10
51559;DHT22;61650;48.882;2.092;2023-07-29T11:47:25;23.30;73.70
51559;DHT22;61650;48.882;2.092;2023-07-29T11:49:51;23.50;71.40
51559;DHT22;61650;48.882;2.092;2023-07-29T11:52:18;23.70;73.50
51559;DHT22;61650;48.882;2.092;2023-07-29T11:54:47;23.90;69.90
51559;DHT22;61650;48.882;2.092;2023-07-29T11:57:13;24.10;73.30
51559;DHT22;61650;48.882;2.092;2023-07-29T11:59:40;24.20;72.40
51559;DHT22;61650;48.882;2.092;2023-07-29T12:02:12;24.30;72.70
51559;DHT22;61650;48.882;2.092;2023-07-29T12:04:38;24.50;72.10
51559;DHT22;61650;48.882;2.092;2023-07-29T12:07:04;24.80;72.70
51559;DHT22;61650;48.882;2.092;2023-07-29T12:09:30;25.10;70.80
51559;DHT22;61650;48.882;2.092;2023-07-29T12:11:56;25.30;67.90
51559;DHT22;61650;48.882;2.092;2023-07-29T12:14:25;25.10;69.80
51559;DHT22;61650;48.882;2.092;2023-07-29T12:16:51;24.80;69.80
51559;DHT22;61650;48.882;2.092;2023-07-29T12:19:17;24.50;70.50
51559;DHT22;61650;48.882;2.092;2023-07-29T12:21:44;24.80;70.00
51559;DHT22;61650;48.882;2.092;2023-07-29T12:24:09;24.90;69.30
51559;DHT22;61650;48.882;2.092;2023-07-29T12:26:37;25.10;69.00
51559;DHT22;61650;48.882;2.092;2023-07-29T12:29:16;25.60;65.60
51559;DHT22;61650;48.882;2.092;2023-07-29T12:31:42;25.20;65.20
51559;DHT22;61650;48.882;2.092;2023-07-29T12:34:08;24.80;65.00
51559;DHT22;61650;48.882;2.092;2023-07-29T12:36:49;24.20;69.30
51559;DHT22;61650;48.882;2.092;2023-07-29T12:41:47;23.80;70.20
51559;DHT22;61650;48.882;2.092;2023-07-29T12:44:13;23.70;71.30
51559;DHT22;61650;48.882;2.092;2023-07-29T12:46:39;23.60;72.90
51559;DHT22;61650;48.882;2.092;2023-07-29T12:49:04;23.60;72.40
51559;DHT22;61650;48.882;2.092;2023-07-29T12:51:30;23.50;74.80
51559;DHT22;61650;48.882;2.092;2023-07-29T12:53:56;23.80;83.10
51559;DHT22;61650;48.882;2.092;2023-07-29T12:56:21;23.80;79.10
51559;DHT22;61650;48.882;2.092;2023-07-29T12:58:47;23.30;75.20
51559;DHT22;61650;48.882;2.092;2023-07-29T13:01:14;23.20;76.50
51559;DHT22;61650;48.882;2.092;2023-07-29T13:03:47;23.30;76.20
51559;DHT22;61650;48.882;2.092;2023-07-29T13:06:12;23.70;74.70
51559;DHT22;61650;48.882;2.092;2023-07-29T13:08:38;24.10;71.60
51559;DHT22;61650;48.882;2.092;2023-07-29T13:11:04;24.70;72.30
51559;DHT22;61650;48.882;2.092;2023-07-29T13:13:31;24.90;67.90
51559;DHT22;61650;48.882;2.092;2023-07-29T13:15:57;24.70;70.10
51559;DHT22;61650;48.882;2.092;2023-07-29T13:18:23;24.50;66.90
51559;DHT22;61650;48.882;2.092;2023-07-29T13:20:48;24.30;66.80
51559;DHT22;61650;48.882;2.092;2023-07-29T13:23:15;24.40;68.00
51559;DHT22;61650;48.882;2.092;2023-07-29T13:25:41;24.90;67.10
51559;DHT22;61650;48.882;2.092;2023-07-29T13:28:06;26.00;64.70
51559;DHT22;61650;48.882;2.092;2023-07-29T13:30:32;26.60;62.90
51559;DHT22;61650;48.882;2.092;2023-07-29T13:32:58;26.60;62.50
51559;DHT22;61650;48.882;2.092;2023-07-29T13:35:24;27.00;61.30
51559;DHT22;61650;48.882;2.092;2023-07-29T13:37:50;27.30;60.40
51559;DHT22;61650;48.882;2.092;2023-07-29T13:40:15;27.50;58.40
51559;DHT22;61650;48.882;2.092;2023-07-29T13:42:41;27.80;57.90
51559;DHT22;61650;48.882;2.092;2023-07-29T13:45:07;27.90;56.40
51559;DHT22;61650;48.882;2.092;2023-07-29T13:47:33;28.00;57.20
51559;DHT22;61650;48.882;2.092;2023-07-29T13:49:59;28.20;54.30
51559;DHT22;61650;48.882;2.092;2023-07-29T13:52:25;28.20;57.00
51559;DHT22;61650;48.882;2.092;2023-07-29T13:54:51;28.20;59.80
51559;DHT22;61650;48.882;2.092;2023-07-29T13:57:16;28.10;56.30
51559;DHT22;61650;48.882;2.092;2023-07-29T13:59:42;27.80;57.20
51559;DHT22;61650;48.882;2.092;2023-07-29T14:02:07;27.10;57.90
51559;DHT22;61650;48.882;2.092;2023-07-29T14:04:33;26.60;60.60
51559;DHT22;61650;48.882;2.092;2023-07-29T14:06:59;26.10;59.40
51559;DHT22;61650;48.882;2.092;2023-07-29T14:09:25;25.70;62.30
51559;DHT22;61650;48.882;2.092;2023-07-29T14:11:51;25.50;64.60
51559;DHT22;61650;48.882;2.092;2023-07-29T14:14:17;25.30;64.10
51559;DHT22;61650;48.882;2.092;2023-07-29T14:16:42;25.00;67.00
51559;DHT22;61650;48.882;2.092;2023-07-29T14:19:08;24.70;68.10
51559;DHT22;61650;48.882;2.092;2023-07-29T14:21:34;24.00;72.00
51559;DHT22;61650;48.882;2.092;2023-07-29T14:24:00;23.60;74.10
51559;DHT22;61650;48.882;2.092;2023-07-29T14:26:25;23.20;74.00
51559;DHT22;61650;48.882;2.092;2023-07-29T14:28:51;23.10;74.30
51559;DHT22;61650;48.882;2.092;2023-07-29T14:31:17;23.10;73.20
51559;DHT22;61650;48.882;2.092;2023-07-29T14:33:43;23.20;73.60
51559;DHT22;61650;48.882;2.092;2023-07-29T14:36:09;23.20;75.00
51559;DHT22;61650;48.882;2.092;2023-07-29T14:38:35;23.20;74.60
51559;DHT22;61650;48.882;2.092;2023-07-29T14:41:02;23.00;77.00
51559;DHT22;61650;48.882;2.092;2023-07-29T14:43:27;22.80;80.40
51559;DHT22;61650;48.882;2.092;2023-07-29T14:45:53;22.70;84.10
51559;DHT22;61650;48.882;2.092;2023-07-29T14:48:18;22.80;83.90
51559;DHT22;61650;48.882;2.092;2023-07-29T14:50:44;23.00;84.20
51559;DHT22;61650;48.882;2.092;2023-07-29T14:53:10;23.20;85.50
51559;DHT22;61650;48.882;2.092;2023-07-29T14:55:37;23.50;83.10
51559;DHT22;61650;48.882;2.092;2023-07-29T14:58:03;23.70;83.00
51559;DHT22;61650;48.882;2.092;2023-07-29T15:00:29;23.90;82.40
51559;DHT22;61650;48.882;2.092;2023-07-29T15:02:54;24.10;81.30
51559;DHT22;61650;48.882;2.092;2023-07-29T15:05:20;24.20;79.70
51559;DHT22;61650;48.882;2.092;2023-07-29T15:07:46;24.20;78.90
51559;DHT22;61650;48.882;2.092;2023-07-29T15:10:14;24.20;76.90
51559;DHT22;61650;48.882;2.092;2023-07-29T15:12:41;24.30;76.70
51559;DHT22;61650;48.882;2.092;2023-07-29T15:15:07;24.30;73.30
51559;DHT22;61650;48.882;2.092;2023-07-29T15:17:33;24.30;73.50
51559;DHT22;61650;48.882;2.092;2023-07-29T15:19:58;24.30;69.00
51559;DHT22;61650;48.882;2.092;2023-07-29T15:22:24;24.30;71.00
51559;DHT22;61650;48.882;2.092;2023-07-29T15:24:50;24.30;67.80
51559;DHT22;61650;48.882;2.092;2023-07-29T15:27:15;24.30;69.10
51559;DHT22;61650;48.882;2.092;2023-07-29T15:29:41;24.40;69.20
51559;DHT22;61650;48.882;2.092;2023-07-29T15:32:07;24.60;72.30
51559;DHT22;61650;48.882;2.092;2023-07-29T15:34:33;24.60;69.30
51559;DHT22;61650;48.882;2.092;2023-07-29T15:36:58;24.60;65.10
51559;DHT22;61650;48.882;2.092;2023-07-29T15:39:24;24.60;66.20